createdAt,value
2019-03-06T00:00:42.857Z,17.80
2019-03-06T00:01:43.180Z,18.30
2019-03-06T00:02:43.424Z,17.10
2019-03-06T00:03:43.752Z,19.60
2019-03-06T00:04:43.960Z,18.70
2019-03-06T00:05:44.231Z,18.10
2019-03-06T00:06:44.548Z,18.40
2019-03-06T00:07:44.806Z,17.50
2019-03-06T00:08:45.102Z,18.90
2019-03-06T00:09:45.366Z,21.10
2019-03-06T00:10:45.646Z,20.10
2019-03-06T00:11:45.956Z,21.00
2019-03-06T00:12:46.241Z,18.50
2019-03-06T00:13:46.497Z,20.60
2019-03-06T00:14:46.752Z,20.90
2019-03-06T00:15:47.029Z,24.10
2019-03-06T00:16:47.340Z,21.20
2019-03-06T00:17:47.581Z,20.90
2019-03-06T00:18:47.859Z,20.00
2019-03-06T00:19:48.145Z,18.90
2019-03-06T00:20:48.506Z,16.90
2019-03-06T00:21:48.698Z,21.10
2019-03-06T00:22:48.938Z,18.00
2019-03-06T00:23:49.235Z,19.60
2019-03-06T00:24:49.524Z,16.70
2019-03-06T00:25:54.661Z,18.30
2019-03-06T00:26:50.102Z,21.80
2019-03-06T00:27:50.345Z,17.30
2019-03-06T00:28:50.739Z,16.70
2019-03-06T00:30:04.632Z,18.90
2019-03-06T00:30:52.183Z,19.70
2019-03-06T00:31:51.472Z,20.30
2019-03-06T00:32:51.734Z,18.40
2019-03-06T00:33:51.991Z,18.60
2019-03-06T00:34:52.297Z,17.80
2019-03-06T00:35:52.575Z,15.60
2019-03-06T00:36:52.943Z,16.30
2019-03-06T00:37:53.132Z,17.50
2019-03-06T00:38:53.378Z,15.70
2019-03-06T00:39:53.673Z,17.80
2019-03-06T00:40:53.974Z,17.40
2019-03-06T00:41:54.277Z,18.00
2019-03-06T00:42:54.526Z,17.40
2019-03-06T00:43:54.802Z,16.60
2019-03-06T00:44:55.126Z,17.50
2019-03-06T00:45:55.329Z,17.70
2019-03-06T00:46:55.640Z,20.10
2019-03-06T00:47:55.889Z,17.10
2019-03-06T00:48:56.170Z,21.70
2019-03-06T00:49:56.477Z,20.20
2019-03-06T00:50:56.714Z,15.90
2019-03-06T00:51:57.030Z,14.60
2019-03-06T00:52:57.338Z,15.90
2019-03-06T00:53:57.649Z,16.70
2019-03-06T00:54:57.862Z,16.70
2019-03-06T00:55:58.580Z,16.80
2019-03-06T00:56:58.405Z,17.80
2019-03-06T00:57:58.670Z,19.00
2019-03-06T00:58:58.945Z,18.00
2019-03-06T00:59:59.238Z,15.80
2019-03-06T01:00:59.504Z,16.20
2019-03-06T01:01:59.895Z,17.90
2019-03-06T01:03:00.049Z,14.80
2019-03-06T01:04:00.327Z,15.90
2019-03-06T01:05:00.611Z,15.80
2019-03-06T01:06:00.871Z,17.70
2019-03-06T01:07:01.162Z,14.70
2019-03-06T01:08:01.419Z,18.30
2019-03-06T01:09:01.709Z,16.30
2019-03-06T01:10:02.053Z,16.20
2019-03-06T01:11:02.254Z,16.40
2019-03-06T01:12:02.560Z,14.80
2019-03-06T01:13:02.792Z,16.00
2019-03-06T01:14:03.085Z,15.90
2019-03-06T01:15:03.364Z,17.70
2019-03-06T01:16:03.639Z,15.80
2019-03-06T01:17:03.936Z,16.20
2019-03-06T01:18:04.206Z,19.20
2019-03-06T01:19:04.447Z,17.20
2019-03-06T01:20:04.750Z,19.30
2019-03-06T01:21:05.019Z,17.20
2019-03-06T01:22:05.320Z,17.40
2019-03-06T01:23:05.564Z,16.60
2019-03-06T01:24:05.825Z,17.10
2019-03-06T01:25:06.132Z,17.20
2019-03-06T01:26:06.474Z,17.40
2019-03-06T01:27:06.972Z,16.10
2019-03-06T01:28:06.964Z,15.30
2019-03-06T01:29:07.244Z,14.40
2019-03-06T01:30:07.519Z,16.70
2019-03-06T01:31:07.794Z,16.30
2019-03-06T01:32:08.102Z,17.00
2019-03-06T01:33:08.360Z,18.40
2019-03-06T01:34:08.740Z,15.30
2019-03-06T01:35:09.037Z,14.30
2019-03-06T01:36:09.189Z,18.20
2019-03-06T01:37:09.511Z,16.10
2019-03-06T01:38:09.775Z,16.10
2019-03-06T01:39:10.037Z,15.40
2019-03-06T01:40:10.329Z,14.80
2019-03-06T01:41:10.567Z,17.80
2019-03-06T01:42:10.860Z,18.80
2019-03-06T01:43:11.293Z,15.00
2019-03-06T01:44:11.447Z,19.30
2019-03-06T01:45:11.747Z,14.40
2019-03-06T01:46:11.987Z,18.80
2019-03-06T01:47:12.283Z,16.80
2019-03-06T01:48:12.584Z,16.60
2019-03-06T01:49:12.833Z,16.30
2019-03-06T01:50:13.127Z,17.50
2019-03-06T01:51:13.446Z,14.70
2019-03-06T01:52:13.648Z,14.90
2019-03-06T01:53:13.998Z,17.10
2019-03-06T01:54:14.222Z,13.90
2019-03-06T01:55:14.520Z,17.80
2019-03-06T01:56:14.816Z,17.20
2019-03-06T01:57:15.051Z,13.90
2019-03-06T01:58:15.346Z,15.00
2019-03-06T01:59:15.668Z,15.10
2019-03-06T02:00:15.874Z,14.00
2019-03-06T02:01:16.140Z,17.50
2019-03-06T02:02:16.420Z,17.20
2019-03-06T02:03:16.723Z,16.50
2019-03-06T02:04:16.973Z,18.90
2019-03-06T02:05:17.272Z,18.20
2019-03-06T02:06:17.534Z,18.60
2019-03-06T02:07:17.827Z,18.80
2019-03-06T02:08:18.177Z,14.40
2019-03-06T02:09:18.372Z,18.10
2019-03-06T02:10:18.666Z,15.20
2019-03-06T02:11:18.928Z,18.90
2019-03-06T02:12:19.206Z,18.40
2019-03-06T02:13:19.496Z,16.20
2019-03-06T02:14:19.763Z,17.40
2019-03-06T02:15:20.040Z,17.00
2019-03-06T02:16:20.396Z,15.80
2019-03-06T02:17:20.584Z,16.00
2019-03-06T02:18:20.872Z,18.40
2019-03-06T02:19:21.122Z,17.00
2019-03-06T02:20:21.431Z,18.40
2019-03-06T02:21:21.708Z,18.60
2019-03-06T02:22:21.984Z,17.60
2019-03-06T02:23:22.271Z,21.40
2019-03-06T02:24:22.628Z,14.60
2019-03-06T02:25:22.801Z,16.90
2019-03-06T02:26:23.078Z,17.30
2019-03-06T02:27:23.353Z,16.80
2019-03-06T02:28:23.641Z,18.30
2019-03-06T02:29:23.914Z,21.00
2019-03-06T02:30:24.209Z,21.40
2019-03-06T02:31:24.443Z,16.90
2019-03-06T02:32:24.789Z,19.90
2019-03-06T02:33:25.017Z,18.70
2019-03-06T02:34:25.284Z,16.60
2019-03-06T02:35:25.571Z,20.90
2019-03-06T02:36:25.825Z,20.10
2019-03-06T02:37:26.084Z,21.70
2019-03-06T02:38:26.398Z,15.60
2019-03-06T02:39:26.661Z,18.90
2019-03-06T02:40:26.969Z,18.20
2019-03-06T02:41:27.275Z,22.20
2019-03-06T02:42:27.482Z,19.30
2019-03-06T02:43:27.793Z,17.60
2019-03-06T02:44:28.067Z,20.30
2019-03-06T02:45:28.327Z,18.00
2019-03-06T02:46:28.631Z,20.00
2019-03-06T02:47:28.904Z,18.80
2019-03-06T02:48:29.192Z,20.00
2019-03-06T02:49:29.574Z,16.90
2019-03-06T02:50:29.726Z,21.00
2019-03-06T02:51:30.019Z,18.50
2019-03-06T02:52:30.275Z,18.90
2019-03-06T02:53:30.555Z,20.80
2019-03-06T02:54:30.835Z,20.50
2019-03-06T02:55:31.101Z,20.50
2019-03-06T02:56:31.398Z,22.10
2019-03-06T02:57:31.772Z,22.40
2019-03-06T02:58:31.947Z,18.80
2019-03-06T02:59:32.244Z,19.50
2019-03-06T03:00:32.517Z,23.00
2019-03-06T03:01:32.794Z,21.40
2019-03-06T03:02:33.057Z,22.80
2019-03-06T03:03:33.352Z,21.20
2019-03-06T03:04:33.604Z,21.10
2019-03-06T03:05:33.977Z,20.10
2019-03-06T03:06:34.389Z,22.80
2019-03-06T03:07:34.434Z,22.90
2019-03-06T03:08:34.717Z,21.40
2019-03-06T03:09:34.986Z,22.00
2019-03-06T03:10:35.269Z,19.70
2019-03-06T03:11:35.547Z,23.00
2019-03-06T03:12:35.806Z,21.70
2019-03-06T03:13:36.156Z,19.80
2019-03-06T03:14:36.432Z,21.70
2019-03-06T03:15:36.609Z,27.30
2019-03-06T03:16:36.926Z,24.00
2019-03-06T03:17:37.195Z,24.70
2019-03-06T03:18:37.493Z,23.30
2019-03-06T03:19:37.771Z,26.30
2019-03-06T03:20:38.030Z,25.90
2019-03-06T03:21:38.315Z,25.60
2019-03-06T03:22:38.667Z,23.70
2019-03-06T03:23:38.895Z,25.10
2019-03-06T03:24:39.168Z,24.60
2019-03-06T03:25:39.422Z,26.30
2019-03-06T03:26:39.720Z,26.20
2019-03-06T03:27:39.959Z,27.60
2019-03-06T03:28:40.271Z,25.70
2019-03-06T03:29:40.550Z,24.60
2019-03-06T03:30:40.950Z,51.00
2019-03-06T03:31:41.086Z,29.10
2019-03-06T03:32:41.436Z,30.30
2019-03-06T03:33:41.672Z,31.10
2019-03-06T03:34:41.956Z,26.60
2019-03-06T03:35:42.211Z,22.70
2019-03-06T03:36:42.512Z,28.40
2019-03-06T03:37:42.750Z,25.80
2019-03-06T03:38:43.098Z,26.90
2019-03-06T03:39:43.311Z,24.20
2019-03-06T03:40:43.589Z,30.40
2019-03-06T03:41:43.877Z,24.80
2019-03-06T03:42:44.130Z,23.70
2019-03-06T03:43:44.398Z,24.40
2019-03-06T03:44:44.721Z,25.90
2019-03-06T03:45:44.969Z,21.40
2019-03-06T03:46:45.297Z,24.70
2019-03-06T03:47:45.503Z,23.30
2019-03-06T03:48:45.771Z,25.80
2019-03-06T03:49:46.074Z,23.80
2019-03-06T03:50:46.353Z,23.50
2019-03-06T03:51:46.643Z,25.70
2019-03-06T03:52:46.918Z,23.90
2019-03-06T03:53:47.192Z,24.10
2019-03-06T03:54:47.538Z,25.40
2019-03-06T03:55:47.765Z,22.30
2019-03-06T03:56:48.051Z,27.40
2019-03-06T03:57:48.309Z,26.30
2019-03-06T03:58:48.587Z,26.20
2019-03-06T03:59:48.889Z,26.80
2019-03-06T04:00:49.131Z,27.60
2019-03-06T04:01:49.433Z,25.10
2019-03-06T04:02:49.713Z,26.30
2019-03-06T04:03:50.111Z,27.30
2019-03-06T04:04:50.303Z,26.10
2019-03-06T04:05:50.513Z,27.50
2019-03-06T04:06:50.819Z,28.60
2019-03-06T04:07:51.077Z,28.90
2019-03-06T04:08:51.357Z,29.10
2019-03-06T04:09:51.682Z,25.70
2019-03-06T04:10:51.929Z,30.70
2019-03-06T04:11:52.300Z,30.60
2019-03-06T04:12:52.457Z,32.60
2019-03-06T04:13:52.733Z,30.20
2019-03-06T04:14:53.049Z,30.30
2019-03-06T04:15:53.285Z,31.10
2019-03-06T04:16:53.568Z,29.40
2019-03-06T04:17:53.836Z,30.60
2019-03-06T04:18:54.132Z,29.60
2019-03-06T04:19:54.501Z,33.20
2019-03-06T04:20:54.665Z,32.30
2019-03-06T04:21:54.973Z,29.30
2019-03-06T04:22:55.212Z,35.40
2019-03-06T04:23:55.504Z,29.30
2019-03-06T04:24:55.825Z,30.90
2019-03-06T04:25:56.056Z,31.20
2019-03-06T04:26:56.346Z,30.40
2019-03-06T04:27:56.625Z,34.20
2019-03-06T04:28:56.870Z,30.00
2019-03-06T04:29:57.223Z,27.30
2019-03-06T04:30:57.449Z,28.30
2019-03-06T04:31:57.736Z,34.30
2019-03-06T04:32:58.008Z,33.30
2019-03-06T04:33:58.268Z,32.50
2019-03-06T04:34:58.592Z,30.70
2019-03-06T04:35:58.892Z,32.40
2019-03-06T04:36:59.201Z,33.70
2019-03-06T04:37:59.385Z,33.70
2019-03-06T04:38:59.644Z,30.90
2019-03-06T04:40:00.303Z,39.00
2019-03-06T04:41:00.230Z,33.30
2019-03-06T04:42:00.532Z,33.00
2019-03-06T04:43:00.783Z,35.00
2019-03-06T04:44:01.299Z,35.90
2019-03-06T04:45:01.512Z,34.30
2019-03-06T04:46:01.605Z,38.20
2019-03-06T04:47:01.880Z,43.00
2019-03-06T04:48:02.154Z,34.50
2019-03-06T04:49:02.438Z,42.20
2019-03-06T04:50:02.775Z,36.90
2019-03-06T04:51:02.978Z,37.50
2019-03-06T04:52:03.275Z,37.50
2019-03-06T04:53:03.650Z,40.20
2019-03-06T04:54:03.838Z,42.90
2019-03-06T04:55:04.157Z,36.40
2019-03-06T04:56:04.370Z,39.00
2019-03-06T04:57:04.664Z,38.30
2019-03-06T04:58:04.950Z,38.50
2019-03-06T04:59:05.232Z,39.00
2019-03-06T05:00:05.779Z,40.20
2019-03-06T05:01:05.822Z,41.40
2019-03-06T05:02:06.034Z,42.40
2019-03-06T05:03:06.353Z,40.70
2019-03-06T05:04:06.599Z,47.10
2019-03-06T05:05:06.918Z,44.80
2019-03-06T05:06:07.160Z,43.40
2019-03-06T05:07:07.440Z,46.10
2019-03-06T05:08:07.747Z,48.20
2019-03-06T05:09:08.046Z,44.30
2019-03-06T05:10:08.385Z,50.80
2019-03-06T05:11:08.546Z,46.90
2019-03-06T05:12:08.810Z,48.60
2019-03-06T05:13:09.098Z,45.10
2019-03-06T05:14:09.373Z,45.60
2019-03-06T05:15:09.723Z,41.50
2019-03-06T05:16:09.927Z,46.30
2019-03-06T05:17:10.209Z,48.30
2019-03-06T05:18:10.648Z,51.50
2019-03-06T05:19:10.753Z,51.30
2019-03-06T05:20:11.089Z,51.60
2019-03-06T05:21:11.306Z,47.70
2019-03-06T05:22:11.577Z,51.60
2019-03-06T05:23:11.871Z,45.00
2019-03-06T05:24:12.120Z,47.90
2019-03-06T05:25:12.462Z,50.40
2019-03-06T05:26:12.834Z,53.40
2019-03-06T05:27:12.974Z,49.50
2019-03-06T05:28:13.276Z,47.20
2019-03-06T05:29:13.514Z,58.40
2019-03-06T05:30:13.850Z,47.30
2019-03-06T05:31:14.097Z,50.30
2019-03-06T05:32:14.375Z,48.10
2019-03-06T05:33:14.671Z,54.30
2019-03-06T05:34:15.607Z,51.10
2019-03-06T05:35:15.220Z,52.60
2019-03-06T05:36:15.476Z,54.10
2019-03-06T05:37:15.770Z,51.70
2019-03-06T05:38:16.609Z,51.70
2019-03-06T05:39:16.316Z,50.80
2019-03-06T05:40:16.644Z,52.00
2019-03-06T05:41:16.846Z,56.10
2019-03-06T05:42:17.177Z,50.40
2019-03-06T05:43:17.434Z,51.90
2019-03-06T05:44:17.697Z,54.90
2019-03-06T05:45:18.019Z,56.10
2019-03-06T05:46:18.250Z,59.90
2019-03-06T05:47:18.503Z,55.10
2019-03-06T05:48:18.821Z,57.10
2019-03-06T05:49:19.080Z,61.10
2019-03-06T05:50:20.257Z,58.50
2019-03-06T05:51:19.789Z,57.80
2019-03-06T05:52:19.909Z,61.30
2019-03-06T05:53:20.221Z,61.60
2019-03-06T05:54:20.481Z,59.30
2019-03-06T05:55:20.791Z,70.60
2019-03-06T05:56:21.036Z,56.40
2019-03-06T05:57:21.315Z,66.70
2019-03-06T05:58:21.589Z,61.40
2019-03-06T05:59:21.966Z,62.50
2019-03-06T06:00:22.206Z,63.80
2019-03-06T06:01:22.493Z,59.80
2019-03-06T06:02:22.772Z,70.40
2019-03-06T06:03:23.044Z,60.20
2019-03-06T06:04:23.350Z,64.30
2019-03-06T06:05:23.604Z,57.50
2019-03-06T06:06:23.898Z,62.70
2019-03-06T06:07:24.252Z,64.50
2019-03-06T06:08:24.432Z,64.00
2019-03-06T06:09:24.705Z,62.80
2019-03-06T06:10:24.980Z,61.60
2019-03-06T06:11:25.284Z,57.10
2019-03-06T06:12:25.534Z,57.10
2019-03-06T06:13:25.830Z,64.40
2019-03-06T06:14:26.088Z,67.30
2019-03-06T06:15:26.393Z,56.80
2019-03-06T06:16:26.651Z,61.30
2019-03-06T06:17:26.906Z,57.10
2019-03-06T06:18:27.274Z,59.70
2019-03-06T06:19:27.463Z,60.70
2019-03-06T06:20:27.723Z,61.60
2019-03-06T06:21:28.305Z,62.00
2019-03-06T06:22:28.559Z,59.90
2019-03-06T06:23:29.112Z,51.60
2019-03-06T06:24:29.198Z,51.40
2019-03-06T06:25:29.368Z,54.60
2019-03-06T06:26:29.674Z,58.60
2019-03-06T06:27:29.937Z,61.30
2019-03-06T06:28:30.229Z,55.40
2019-03-06T06:29:30.491Z,50.60
2019-03-06T06:30:30.768Z,58.60
2019-03-06T06:31:31.105Z,53.50
2019-03-06T06:32:32.865Z,56.00
2019-03-06T06:33:31.620Z,58.10
2019-03-06T06:34:31.877Z,53.70
2019-03-06T06:35:32.149Z,51.60
2019-03-06T06:36:32.452Z,59.30
2019-03-06T06:37:32.687Z,57.40
2019-03-06T06:38:33.019Z,54.80
2019-03-06T06:39:33.277Z,56.80
2019-03-06T06:40:35.552Z,55.60
2019-03-06T06:41:33.816Z,58.00
2019-03-06T06:42:34.053Z,56.90
2019-03-06T06:43:34.373Z,55.10
2019-03-06T06:44:34.649Z,50.00
2019-03-06T06:45:34.908Z,55.20
2019-03-06T06:46:35.196Z,56.30
2019-03-06T06:47:35.460Z,49.20
2019-03-06T06:48:35.778Z,48.50
2019-03-06T06:49:36.017Z,54.50
2019-03-06T06:50:36.280Z,56.10
2019-03-06T06:51:36.573Z,59.50
2019-03-06T06:52:36.843Z,57.90
2019-03-06T06:53:37.122Z,50.10
2019-03-06T06:54:37.366Z,47.10
2019-03-06T06:55:37.658Z,50.30
2019-03-06T06:56:37.986Z,57.00
2019-03-06T06:57:38.255Z,52.70
2019-03-06T06:58:38.505Z,54.90
2019-03-06T06:59:38.759Z,53.50
2019-03-06T07:00:39.048Z,50.30
2019-03-06T07:01:39.364Z,49.80
2019-03-06T07:02:39.676Z,53.00
2019-03-06T07:03:39.913Z,50.60
2019-03-06T07:04:40.198Z,44.90
2019-03-06T07:05:40.635Z,50.20
2019-03-06T07:06:40.742Z,44.00
2019-03-06T07:07:40.999Z,50.10
2019-03-06T07:08:41.280Z,43.20
2019-03-06T07:09:41.552Z,42.80
2019-03-06T07:10:41.824Z,42.60
2019-03-06T07:11:42.124Z,39.10
2019-03-06T07:12:42.416Z,39.40
2019-03-06T07:13:42.769Z,42.30
2019-03-06T07:14:42.966Z,39.50
2019-03-06T07:15:43.251Z,39.60
2019-03-06T07:16:43.542Z,37.70
2019-03-06T07:17:43.810Z,39.70
2019-03-06T07:18:44.079Z,36.40
2019-03-06T07:19:44.371Z,37.80
2019-03-06T07:20:44.664Z,35.70
2019-03-06T07:21:44.995Z,32.60
2019-03-06T07:22:45.176Z,31.60
2019-03-06T07:23:45.467Z,32.20
2019-03-06T07:24:45.761Z,35.70
2019-03-06T07:25:46.039Z,32.90
2019-03-06T07:26:46.327Z,33.10
2019-03-06T07:27:46.569Z,35.10
2019-03-06T07:28:46.849Z,34.60
2019-03-06T07:29:47.207Z,31.20
2019-03-06T07:30:47.396Z,35.40
2019-03-06T07:31:47.683Z,30.70
2019-03-06T07:32:47.963Z,27.70
2019-03-06T07:33:48.227Z,28.70
2019-03-06T07:34:48.526Z,27.10
2019-03-06T07:35:48.800Z,30.20
2019-03-06T07:36:49.085Z,27.80
2019-03-06T07:37:49.411Z,28.80
2019-03-06T07:38:49.676Z,27.10
2019-03-06T07:39:49.917Z,24.80
2019-03-06T07:40:50.175Z,25.50
2019-03-06T07:41:50.478Z,25.50
2019-03-06T07:42:50.738Z,24.10
2019-03-06T07:43:50.994Z,25.20
2019-03-06T07:44:51.299Z,27.20
2019-03-06T07:45:51.593Z,24.30
2019-03-06T07:46:51.953Z,26.50
2019-03-06T07:47:52.124Z,27.20
2019-03-06T07:48:52.411Z,23.80
2019-03-06T07:49:52.690Z,22.40
2019-03-06T07:50:52.948Z,21.70
2019-03-06T07:51:53.251Z,21.30
2019-03-06T07:52:53.515Z,21.70
2019-03-06T07:53:53.803Z,20.50
2019-03-06T07:54:54.178Z,26.50
2019-03-06T07:55:54.327Z,22.70
2019-03-06T07:56:54.626Z,21.50
2019-03-06T07:57:54.885Z,23.30
2019-03-06T07:58:55.448Z,22.50
2019-03-06T07:59:55.447Z,19.90
2019-03-06T08:00:55.698Z,20.90
2019-03-06T08:01:56.021Z,20.50
2019-03-06T08:02:56.314Z,18.90
2019-03-06T08:03:56.523Z,20.50
2019-03-06T08:04:56.822Z,19.70
2019-03-06T08:05:57.082Z,20.10
2019-03-06T08:06:57.369Z,23.10
2019-03-06T08:07:57.632Z,23.00
2019-03-06T08:08:57.934Z,18.30
2019-03-06T08:09:58.222Z,20.70
2019-03-06T08:10:58.520Z,20.80
2019-03-06T08:11:58.755Z,21.60
2019-03-06T08:12:59.032Z,19.30
2019-03-06T08:13:59.325Z,20.60
2019-03-06T08:14:59.607Z,20.60
2019-03-06T08:15:59.867Z,21.50
2019-03-06T08:17:00.154Z,17.90
2019-03-06T08:18:00.407Z,18.40
2019-03-06T08:19:00.724Z,20.20
2019-03-06T08:20:01.134Z,18.50
2019-03-06T08:21:01.263Z,20.60
2019-03-06T08:22:01.528Z,18.20
2019-03-06T08:23:01.836Z,17.50
2019-03-06T08:24:02.139Z,17.80
2019-03-06T08:25:02.421Z,17.90
2019-03-06T08:26:02.675Z,16.90
2019-03-06T08:27:02.957Z,16.00
2019-03-06T08:28:03.373Z,18.00
2019-03-06T08:29:03.565Z,17.60
2019-03-06T08:30:03.806Z,16.20
2019-03-06T08:31:04.062Z,18.70
2019-03-06T08:32:04.350Z,17.20
2019-03-06T08:33:04.633Z,17.30
2019-03-06T08:34:04.913Z,16.70
2019-03-06T08:35:05.185Z,17.30
2019-03-06T08:36:05.499Z,18.60
2019-03-06T08:37:05.706Z,16.10
2019-03-06T08:38:06.006Z,14.90
2019-03-06T08:39:06.279Z,14.10
2019-03-06T08:40:06.552Z,15.30
2019-03-06T08:41:06.817Z,13.90
2019-03-06T08:42:07.097Z,14.30
2019-03-06T08:43:07.390Z,16.90
2019-03-06T08:44:07.719Z,16.20
2019-03-06T08:45:07.905Z,16.20
2019-03-06T08:46:08.184Z,14.70
2019-03-06T08:47:08.483Z,59.50
2019-03-06T08:48:08.783Z,19.90
2019-03-06T08:49:09.073Z,29.90
2019-03-06T08:50:09.330Z,17.00
2019-03-06T08:51:09.580Z,15.30
2019-03-06T08:52:09.883Z,14.60
2019-03-06T08:53:10.247Z,13.60
2019-03-06T08:54:10.542Z,13.70
2019-03-06T08:55:10.923Z,14.90
2019-03-06T08:56:10.959Z,13.50
2019-03-06T08:57:11.249Z,14.80
2019-03-06T08:58:11.560Z,15.00
2019-03-06T08:59:11.841Z,14.80
2019-03-06T09:00:12.114Z,13.70
2019-03-06T09:01:12.475Z,13.60
2019-03-06T09:02:15.443Z,19.30
2019-03-06T09:03:13.038Z,13.80
2019-03-06T09:04:13.279Z,12.20
2019-03-06T09:05:13.580Z,11.40
2019-03-06T09:06:13.844Z,14.60
2019-03-06T09:07:14.108Z,12.50
2019-03-06T09:08:14.423Z,12.40
2019-03-06T09:09:14.794Z,12.60
2019-03-06T09:10:14.977Z,12.40
2019-03-06T09:11:15.225Z,11.60
2019-03-06T09:12:15.508Z,12.40
2019-03-06T09:13:15.785Z,11.00
2019-03-06T09:14:16.059Z,10.80
2019-03-06T09:15:16.383Z,13.20
2019-03-06T09:16:16.638Z,12.40
2019-03-06T09:17:16.940Z,13.30
2019-03-06T09:18:17.148Z,15.10
2019-03-06T09:19:17.419Z,10.30
2019-03-06T09:20:17.720Z,10.00
2019-03-06T09:21:17.983Z,11.60
2019-03-06T09:22:18.259Z,11.40
2019-03-06T09:23:23.100Z,12.00
2019-03-06T09:24:18.822Z,11.10
2019-03-06T09:25:19.109Z,10.10
2019-03-06T09:26:19.439Z,11.50
2019-03-06T09:27:19.671Z,14.20
2019-03-06T09:28:20.559Z,10.70
2019-03-06T09:29:20.227Z,12.30
2019-03-06T09:30:20.509Z,12.80
2019-03-06T09:31:20.795Z,12.70
2019-03-06T09:32:21.053Z,12.90
2019-03-06T09:33:21.381Z,13.00
2019-03-06T09:34:21.731Z,12.60
2019-03-06T09:35:21.887Z,16.60
2019-03-06T09:36:22.196Z,16.60
2019-03-06T09:37:22.457Z,12.30
2019-03-06T09:38:22.972Z,11.70
2019-03-06T09:39:23.007Z,10.30
2019-03-06T09:40:23.302Z,14.10
2019-03-06T09:41:23.559Z,10.00
2019-03-06T09:42:23.968Z,11.60
2019-03-06T09:43:24.132Z,11.30
2019-03-06T09:44:24.403Z,10.30
2019-03-06T09:45:24.706Z,9.80
2019-03-06T09:46:24.954Z,10.20
2019-03-06T09:47:26.134Z,10.30
2019-03-06T09:48:25.525Z,12.40
2019-03-06T09:49:25.786Z,9.50
2019-03-06T09:50:26.132Z,10.40
2019-03-06T09:51:26.319Z,10.30
2019-03-06T09:52:26.580Z,11.30
2019-03-06T09:53:27.636Z,10.90
2019-03-06T09:54:27.196Z,10.00
2019-03-06T09:55:27.431Z,9.30
2019-03-06T09:56:27.752Z,12.80
2019-03-06T09:57:27.980Z,8.90
2019-03-06T09:58:28.315Z,10.10
2019-03-06T09:59:28.526Z,10.00
2019-03-06T10:00:28.805Z,11.80
2019-03-06T10:01:29.121Z,11.50
2019-03-06T10:02:29.394Z,9.30
2019-03-06T10:03:29.646Z,9.70
2019-03-06T10:04:29.913Z,11.10
2019-03-06T10:05:30.209Z,9.90
2019-03-06T10:06:30.575Z,7.20
2019-03-06T10:07:30.842Z,8.20
2019-03-06T10:08:31.041Z,7.10
2019-03-06T10:09:31.314Z,8.70
2019-03-06T10:10:31.589Z,7.80
2019-03-06T10:11:31.904Z,8.30
2019-03-06T10:12:32.146Z,8.20
2019-03-06T10:13:32.438Z,8.50
2019-03-06T10:14:32.702Z,8.10
2019-03-06T10:15:33.115Z,8.20
2019-03-06T10:16:33.276Z,8.50
2019-03-06T10:17:33.549Z,10.60
2019-03-06T10:18:33.831Z,8.60
2019-03-06T10:19:34.103Z,8.50
2019-03-06T10:20:34.366Z,9.30
2019-03-06T10:21:34.683Z,8.50
2019-03-06T10:22:34.944Z,10.30
2019-03-06T10:23:35.299Z,9.90
2019-03-06T10:24:35.546Z,7.50
2019-03-06T10:25:35.763Z,11.80
2019-03-06T10:26:36.075Z,9.90
2019-03-06T10:27:36.332Z,11.40
2019-03-06T10:28:36.739Z,8.50
2019-03-06T10:29:36.916Z,9.00
2019-03-06T10:30:37.192Z,11.10
2019-03-06T10:31:38.512Z,11.00
2019-03-06T10:32:37.719Z,11.20
2019-03-06T10:33:38.005Z,10.80
2019-03-06T10:34:38.293Z,10.90
2019-03-06T10:35:38.573Z,9.70
2019-03-06T10:36:38.855Z,9.40
2019-03-06T10:37:39.110Z,9.80
2019-03-06T10:38:39.403Z,13.20
2019-03-06T10:39:39.754Z,11.00
2019-03-06T10:40:40.020Z,11.30
2019-03-06T10:41:40.293Z,9.40
2019-03-06T10:42:40.503Z,10.10
2019-03-06T10:43:46.452Z,12.40
2019-03-06T10:44:42.087Z,12.10
2019-03-06T10:45:41.914Z,9.60
2019-03-06T10:46:41.657Z,13.10
2019-03-06T10:47:41.905Z,12.20
2019-03-06T10:48:42.291Z,11.60
2019-03-06T10:49:42.488Z,10.60
2019-03-06T10:50:42.734Z,9.90
2019-03-06T10:51:43.058Z,10.70
2019-03-06T10:52:43.262Z,9.00
2019-03-06T10:53:43.537Z,11.50
2019-03-06T10:55:45.112Z,11.00
2019-03-06T10:56:44.534Z,9.70
2019-03-06T10:57:44.646Z,8.70
2019-03-06T10:58:44.938Z,7.90
2019-03-06T10:59:45.250Z,9.60
2019-03-06T11:00:45.511Z,7.80
2019-03-06T11:01:45.826Z,9.10
2019-03-06T11:02:46.061Z,8.60
2019-03-06T11:03:46.340Z,7.30
2019-03-06T11:04:46.677Z,7.40
2019-03-06T11:05:46.882Z,6.90
2019-03-06T11:06:47.212Z,7.60
2019-03-06T11:07:47.437Z,9.90
2019-03-06T11:08:47.714Z,7.70
2019-03-06T11:09:48.031Z,7.60
2019-03-06T11:10:48.249Z,9.10
2019-03-06T11:11:48.577Z,8.00
2019-03-06T11:12:48.871Z,7.70
2019-03-06T11:13:49.081Z,8.50
2019-03-06T11:14:49.386Z,6.40
2019-03-06T11:15:55.391Z,8.30
2019-03-06T11:16:50.966Z,8.20
2019-03-06T11:17:50.446Z,8.10
2019-03-06T11:18:50.485Z,7.80
2019-03-06T11:19:50.789Z,7.70
2019-03-06T11:20:51.061Z,6.10
2019-03-06T11:21:51.486Z,7.90
2019-03-06T11:22:51.598Z,9.40
2019-03-06T11:23:51.879Z,7.80
2019-03-06T11:24:52.171Z,7.00
2019-03-06T11:25:52.426Z,6.40
2019-03-06T11:26:52.748Z,8.00
2019-03-06T11:27:52.968Z,6.80
2019-03-06T11:28:53.260Z,7.00
2019-03-06T11:29:53.688Z,6.50
2019-03-06T11:30:53.813Z,7.50
2019-03-06T11:31:54.100Z,6.80
2019-03-06T11:32:54.782Z,5.60
2019-03-06T11:33:54.687Z,6.70
2019-03-06T11:34:54.985Z,7.80
2019-03-06T11:35:55.243Z,8.40
2019-03-06T11:36:55.518Z,9.00
2019-03-06T11:37:55.844Z,7.70
2019-03-06T11:38:56.077Z,10.30
2019-03-06T11:39:56.367Z,6.80
2019-03-06T11:40:56.653Z,7.00
2019-03-06T11:41:56.910Z,6.10
2019-03-06T11:42:57.224Z,7.30
2019-03-06T11:43:57.450Z,5.90
2019-03-06T11:44:57.776Z,5.00
2019-03-06T11:45:58.081Z,4.70
2019-03-06T11:46:58.280Z,5.40
2019-03-06T11:47:58.575Z,7.20
2019-03-06T11:48:58.827Z,6.70
2019-03-06T11:49:59.124Z,7.00
2019-03-06T11:50:59.386Z,5.30
2019-03-06T11:51:59.671Z,7.20
2019-03-06T11:53:00.063Z,5.90
2019-03-06T11:54:00.280Z,7.50
2019-03-06T11:55:05.887Z,6.10
2019-03-06T11:56:01.769Z,6.40
2019-03-06T11:57:01.059Z,9.00
2019-03-06T11:58:01.369Z,6.70
2019-03-06T11:59:01.614Z,5.50
2019-03-06T12:00:01.920Z,7.10
2019-03-06T12:01:02.145Z,6.60
2019-03-06T12:02:02.454Z,4.70
2019-03-06T12:03:02.902Z,5.50
2019-03-06T12:04:03.002Z,4.00
2019-03-06T12:05:03.278Z,4.30
2019-03-06T12:06:03.532Z,6.10
2019-03-06T12:07:03.828Z,4.90
2019-03-06T12:08:04.136Z,5.30
2019-03-06T12:09:04.389Z,5.30
2019-03-06T12:10:04.690Z,6.10
2019-03-06T12:11:05.025Z,6.10
2019-03-06T12:12:05.211Z,4.40
2019-03-06T12:13:05.520Z,4.80
2019-03-06T12:14:05.767Z,4.80
2019-03-06T12:15:06.059Z,7.50
2019-03-06T12:16:06.328Z,6.90
2019-03-06T12:17:06.584Z,4.60
2019-03-06T12:18:06.915Z,5.70
2019-03-06T12:19:07.204Z,6.30
2019-03-06T12:20:08.393Z,3.70
2019-03-06T12:21:07.710Z,4.70
2019-03-06T12:22:07.957Z,7.90
2019-03-06T12:23:08.255Z,5.30
2019-03-06T12:24:08.529Z,5.30
2019-03-06T12:25:08.816Z,6.40
2019-03-06T12:26:14.300Z,5.40
2019-03-06T12:27:09.387Z,5.00
2019-03-06T12:28:09.640Z,6.70
2019-03-06T12:29:09.885Z,7.70
2019-03-06T12:30:10.204Z,4.50
2019-03-06T12:31:10.462Z,4.10
2019-03-06T12:32:10.780Z,4.80
2019-03-06T12:33:11.045Z,6.00
2019-03-06T12:34:11.299Z,4.00
2019-03-06T12:35:11.605Z,5.40
2019-03-06T12:36:11.931Z,6.00
2019-03-06T12:37:12.136Z,5.40
2019-03-06T12:38:12.462Z,5.10
2019-03-06T12:39:12.698Z,4.90
2019-03-06T12:40:14.714Z,4.80
2019-03-06T12:41:13.242Z,6.30
2019-03-06T12:42:14.691Z,7.20
2019-03-06T12:43:13.861Z,4.70
2019-03-06T12:44:14.215Z,5.80
2019-03-06T12:45:14.431Z,4.20
2019-03-06T12:46:22.309Z,6.70
2019-03-06T12:47:15.922Z,4.50
2019-03-06T12:48:15.246Z,4.40
2019-03-06T12:49:15.472Z,5.60
2019-03-06T12:50:15.759Z,4.40
2019-03-06T12:51:16.042Z,5.20
2019-03-06T12:52:16.404Z,5.10
2019-03-06T12:53:16.646Z,4.20
2019-03-06T12:54:16.860Z,5.70
2019-03-06T12:55:17.159Z,5.10
2019-03-06T12:56:18.025Z,5.80
2019-03-06T12:57:17.950Z,5.60
2019-03-06T12:58:18.281Z,5.60
2019-03-06T12:59:18.511Z,4.50
2019-03-06T13:00:18.878Z,5.20
2019-03-06T13:01:19.131Z,6.40
2019-03-06T13:02:19.327Z,4.70